createdAt,value
2023-02-15T00:01:51.505Z,2.54
2023-02-15T00:04:22.009Z,2.59
2023-02-15T00:06:50.142Z,2.68
2023-02-15T00:09:19.350Z,2.61
2023-02-15T00:11:51.118Z,2.56
2023-02-15T00:14:21.300Z,2.55
2023-02-15T00:16:50.322Z,2.60
2023-02-15T00:19:20.177Z,2.65
2023-02-15T00:21:49.653Z,2.66
2023-02-15T00:24:20.744Z,2.62
2023-02-15T00:26:50.123Z,2.61
2023-02-15T00:29:20.032Z,2.59
2023-02-15T00:31:49.314Z,2.61
2023-02-15T00:34:19.793Z,2.69
2023-02-15T00:36:48.427Z,2.67
2023-02-15T00:39:17.817Z,2.65
2023-02-15T00:41:47.210Z,2.67
2023-02-15T00:44:17.145Z,2.68
2023-02-15T00:46:45.189Z,2.63
2023-02-15T00:49:13.341Z,2.58
2023-02-15T00:51:41.533Z,2.53
2023-02-15T00:54:09.977Z,2.45
2023-02-15T00:56:38.060Z,2.47
2023-02-15T00:59:07.306Z,2.50
2023-02-15T01:01:35.132Z,2.49
2023-02-15T01:04:03.887Z,2.58
2023-02-15T01:06:31.666Z,2.55
2023-02-15T01:08:59.471Z,2.54
2023-02-15T01:11:27.606Z,2.51
2023-02-15T01:13:56.723Z,2.43
2023-02-15T01:16:28.447Z,2.56
2023-02-15T01:18:56.959Z,2.51
2023-02-15T01:21:26.806Z,2.52
2023-02-15T01:23:55.621Z,2.56
2023-02-15T01:26:23.639Z,2.54
2023-02-15T01:28:51.473Z,2.55
2023-02-15T01:31:22.459Z,2.53
2023-02-15T01:33:51.682Z,2.47
2023-02-15T01:36:19.759Z,2.42
2023-02-15T01:38:47.755Z,2.33
2023-02-15T01:41:23.785Z,2.39
2023-02-15T01:43:54.361Z,2.31
2023-02-15T01:46:27.232Z,2.36
2023-02-15T01:49:02.153Z,2.37
2023-02-15T01:51:33.185Z,2.52
2023-02-15T01:54:07.896Z,2.54
2023-02-15T01:56:38.271Z,2.50
2023-02-15T01:59:10.213Z,2.51
2023-02-15T02:01:39.614Z,2.57
2023-02-15T02:04:15.500Z,2.51
2023-02-15T02:06:43.564Z,2.51
2023-02-15T02:09:11.606Z,2.52
2023-02-15T02:11:41.434Z,2.50
2023-02-15T02:14:10.048Z,2.61
2023-02-15T02:16:45.083Z,2.50
2023-02-15T02:19:39.648Z,2.44
2023-02-15T02:22:35.123Z,2.54
2023-02-15T02:25:37.275Z,2.51
2023-02-15T02:28:27.601Z,2.42
2023-02-15T02:31:47.062Z,2.52
2023-02-15T02:34:22.032Z,2.54
2023-02-15T02:36:55.261Z,2.52
2023-02-15T02:39:31.607Z,2.53
2023-02-15T02:42:08.137Z,2.45
2023-02-15T02:44:45.060Z,2.60
2023-02-15T02:47:19.947Z,2.62
2023-02-15T02:49:49.230Z,2.64
2023-02-15T02:52:37.534Z,2.69
2023-02-15T02:55:07.919Z,2.64
2023-02-15T02:57:38.357Z,2.60
2023-02-15T03:00:09.673Z,2.61
2023-02-15T03:02:40.336Z,2.64
2023-02-15T03:05:14.894Z,2.56
2023-02-15T03:07:44.794Z,2.68
2023-02-15T03:10:12.930Z,2.65
2023-02-15T03:12:42.779Z,2.76
2023-02-15T03:15:15.223Z,2.64
2023-02-15T03:17:46.609Z,2.65
2023-02-15T03:20:20.881Z,2.57
2023-02-15T03:22:53.097Z,2.50
2023-02-15T03:25:24.912Z,2.53
2023-02-15T03:27:57.837Z,2.53
2023-02-15T03:30:27.646Z,2.52
2023-02-15T03:32:56.435Z,2.52
2023-02-15T03:35:32.736Z,2.65
2023-02-15T03:38:02.962Z,2.60
2023-02-15T03:40:51.733Z,2.58
2023-02-15T03:43:26.136Z,2.70
2023-02-15T03:45:59.807Z,2.65
2023-02-15T03:48:32.054Z,2.73
2023-02-15T03:51:24.606Z,2.70
2023-02-15T03:53:54.524Z,2.71
2023-02-15T03:56:22.362Z,2.73
2023-02-15T03:59:08.088Z,2.66
2023-02-15T04:04:39.454Z,2.69
2023-02-15T04:07:09.629Z,2.70
2023-02-15T04:09:55.468Z,2.62
2023-02-15T04:12:23.723Z,2.53
2023-02-15T04:15:09.424Z,2.56
2023-02-15T04:17:38.374Z,2.58
2023-02-15T04:20:27.609Z,2.63
2023-02-15T04:23:13.195Z,2.61
2023-02-15T04:25:41.160Z,2.67
2023-02-15T04:28:09.464Z,2.57
2023-02-15T04:30:37.552Z,2.59
2023-02-15T04:33:05.420Z,2.65
2023-02-15T04:35:34.613Z,2.66
2023-02-15T04:38:02.783Z,2.70
2023-02-15T04:40:30.736Z,2.72
2023-02-15T04:42:58.650Z,2.73
2023-02-15T04:45:28.152Z,2.69
2023-02-15T04:47:56.502Z,2.68
2023-02-15T04:50:24.721Z,2.75
2023-02-15T04:52:54.005Z,2.76
2023-02-15T04:55:21.945Z,2.83
2023-02-15T04:57:49.752Z,2.85
2023-02-15T05:00:18.219Z,2.77
2023-02-15T05:02:46.104Z,2.82
2023-02-15T05:05:16.147Z,2.83
2023-02-15T05:07:44.100Z,2.91
2023-02-15T05:10:13.390Z,2.83
2023-02-15T05:12:41.305Z,2.80
2023-02-15T05:15:09.940Z,2.76
2023-02-15T05:17:37.746Z,2.72
2023-02-15T05:20:06.706Z,2.63
2023-02-15T05:22:34.479Z,2.75
2023-02-15T05:25:20.050Z,2.77
2023-02-15T05:28:06.637Z,2.80
2023-02-15T05:30:34.698Z,2.77
2023-02-15T05:33:02.610Z,2.83
2023-02-15T05:35:30.402Z,2.75
2023-02-15T05:37:58.170Z,2.65
2023-02-15T05:40:25.976Z,2.68
2023-02-15T05:42:55.109Z,2.73
2023-02-15T05:45:23.069Z,2.79
2023-02-15T05:47:51.316Z,2.76
2023-02-15T05:50:19.463Z,2.82
2023-02-15T05:52:47.273Z,2.88
2023-02-15T05:55:15.089Z,2.84
2023-02-15T05:57:42.984Z,2.88
2023-02-15T06:00:15.029Z,2.90
2023-02-15T06:02:42.930Z,2.88
2023-02-15T06:05:11.176Z,2.79
2023-02-15T06:07:38.984Z,2.71
2023-02-15T06:10:08.304Z,2.70
2023-02-15T06:12:36.101Z,2.69
2023-02-15T06:15:04.123Z,2.64
2023-02-15T06:17:33.833Z,2.68
2023-02-15T06:20:01.639Z,2.79
2023-02-15T06:22:29.497Z,2.79
2023-02-15T06:24:57.279Z,2.76
2023-02-15T06:27:25.088Z,2.85
2023-02-15T06:29:52.867Z,2.87
2023-02-15T06:32:20.662Z,2.87
2023-02-15T06:34:49.994Z,2.83
2023-02-15T06:37:17.846Z,2.90
2023-02-15T06:39:45.808Z,2.76
2023-02-15T06:42:13.705Z,2.82
2023-02-15T06:44:41.701Z,2.90
2023-02-15T06:47:09.636Z,2.93
2023-02-15T06:49:37.634Z,2.89
2023-02-15T06:52:07.347Z,2.99
2023-02-15T06:54:35.410Z,2.99
2023-02-15T06:57:03.314Z,3.04
2023-02-15T06:59:31.194Z,2.94
2023-02-15T07:01:59.584Z,2.93
2023-02-15T07:04:29.708Z,2.94
2023-02-15T07:06:57.807Z,2.98
2023-02-15T07:09:27.399Z,2.98
2023-02-15T07:12:13.059Z,3.02
2023-02-15T07:14:41.642Z,3.05
2023-02-15T07:17:27.430Z,3.03
2023-02-15T07:19:57.690Z,3.06
2023-02-15T07:22:25.714Z,3.11
2023-02-15T07:24:55.812Z,3.10
2023-02-15T07:27:23.758Z,3.05
2023-02-15T07:29:51.624Z,3.15
2023-02-15T07:32:19.669Z,3.20
2023-02-15T07:34:47.728Z,3.13
2023-02-15T07:37:15.665Z,3.08
2023-02-15T07:39:43.512Z,3.17
2023-02-15T07:42:12.872Z,3.15
2023-02-15T07:44:40.949Z,3.22
2023-02-15T07:47:08.875Z,3.08
2023-02-15T07:49:36.796Z,3.09
2023-02-15T07:52:04.704Z,3.15
2023-02-15T07:54:32.672Z,3.20
2023-02-15T07:57:00.520Z,3.23
2023-02-15T07:59:29.848Z,3.27
2023-02-15T08:01:58.261Z,3.27
2023-02-15T08:04:26.789Z,3.32
2023-02-15T08:06:55.961Z,3.34
2023-02-15T08:09:24.302Z,3.31
2023-02-15T08:11:52.438Z,3.32
2023-02-15T08:14:23.039Z,3.29
2023-02-15T08:16:53.450Z,3.27
2023-02-15T08:19:23.624Z,3.30
2023-02-15T08:21:54.418Z,3.35
2023-02-15T08:24:24.327Z,3.37
2023-02-15T08:26:53.137Z,3.40
2023-02-15T08:29:23.528Z,3.34
2023-02-15T08:31:55.933Z,3.36
2023-02-15T08:34:23.920Z,3.39
2023-02-15T08:36:51.953Z,3.40
2023-02-15T08:39:19.964Z,3.40
2023-02-15T08:41:49.507Z,3.40
2023-02-15T08:44:19.294Z,3.42
2023-02-15T08:46:48.917Z,3.49
2023-02-15T08:49:20.625Z,3.42
2023-02-15T08:51:49.999Z,3.45
2023-02-15T08:54:19.899Z,3.46
2023-02-15T08:56:48.175Z,3.46
2023-02-15T08:59:19.069Z,3.49
2023-02-15T09:01:49.902Z,3.53
2023-02-15T09:04:19.759Z,3.45
2023-02-15T09:06:49.649Z,3.53
2023-02-15T09:09:18.828Z,3.55
2023-02-15T09:11:48.937Z,3.52
2023-02-15T09:14:18.916Z,3.55
2023-02-15T09:16:49.912Z,3.53
2023-02-15T09:19:20.950Z,3.49
2023-02-15T09:21:48.908Z,3.58
2023-02-15T09:24:18.605Z,3.58
2023-02-15T09:26:48.273Z,3.61
2023-02-15T09:29:17.063Z,3.60
2023-02-15T09:31:46.817Z,3.62
2023-02-15T09:34:17.191Z,3.61
2023-02-15T09:36:47.560Z,3.65
2023-02-15T09:39:17.976Z,3.68
2023-02-15T09:42:18.478Z,3.65
2023-02-15T09:45:18.203Z,3.64
2023-02-15T09:48:17.508Z,3.62
2023-02-15T09:50:55.587Z,3.66
2023-02-15T09:53:38.241Z,3.63
2023-02-15T09:56:11.765Z,3.62
2023-02-15T09:58:50.370Z,3.53
2023-02-15T10:01:29.321Z,3.68
2023-02-15T10:04:13.305Z,3.72
2023-02-15T10:06:47.281Z,3.69
2023-02-15T10:09:48.386Z,3.59
2023-02-15T10:12:40.636Z,3.64
2023-02-15T10:15:31.548Z,3.66
2023-02-15T10:18:17.160Z,3.62
2023-02-15T10:20:58.678Z,3.73
2023-02-15T10:23:40.637Z,3.68
2023-02-15T10:26:18.197Z,3.68
2023-02-15T10:28:50.723Z,3.76
2023-02-15T10:31:27.156Z,3.69
2023-02-15T10:34:13.313Z,3.69
2023-02-15T10:37:00.641Z,3.75
2023-02-15T10:39:35.482Z,3.80
2023-02-15T10:42:12.129Z,3.84
2023-02-15T10:44:57.324Z,3.82
2023-02-15T10:47:48.049Z,3.84
2023-02-15T10:50:29.168Z,3.83
2023-02-15T10:53:10.360Z,3.83
2023-02-15T10:55:51.082Z,3.87
2023-02-15T10:58:34.608Z,3.88
2023-02-15T11:01:14.877Z,3.87
2023-02-15T11:04:08.167Z,3.87
2023-02-15T11:06:38.751Z,3.85
2023-02-15T11:09:12.796Z,3.87
2023-02-15T11:11:43.465Z,3.92
2023-02-15T11:14:17.781Z,3.88
2023-02-15T11:16:51.151Z,3.92
2023-02-15T11:19:24.475Z,3.96
2023-02-15T11:21:57.036Z,3.87
2023-02-15T11:24:30.080Z,3.87
2023-02-15T11:27:02.334Z,3.91
2023-02-15T11:29:36.626Z,3.92
2023-02-15T11:32:16.128Z,3.96
2023-02-15T11:34:53.829Z,3.97
2023-02-15T11:37:30.685Z,3.97
2023-02-15T11:39:58.534Z,4.04
2023-02-15T11:42:29.926Z,4.06
2023-02-15T11:45:06.510Z,3.98
2023-02-15T11:47:34.410Z,4.08
2023-02-15T11:50:02.425Z,4.02
2023-02-15T11:52:30.228Z,4.06
2023-02-15T11:54:58.180Z,4.13
2023-02-15T11:57:30.610Z,4.02
2023-02-15T12:00:05.117Z,3.98
2023-02-15T12:02:35.415Z,3.93
2023-02-15T12:05:08.970Z,3.95
2023-02-15T12:07:39.676Z,3.92
2023-02-15T12:10:21.583Z,3.93
2023-02-15T12:12:49.578Z,3.86
2023-02-15T12:15:33.314Z,3.88
2023-02-15T12:18:01.532Z,3.86
2023-02-15T12:20:32.921Z,3.84
2023-02-15T12:23:04.188Z,3.83
2023-02-15T12:25:38.443Z,3.84
2023-02-15T12:28:19.055Z,3.86
2023-02-15T12:30:48.504Z,3.82
2023-02-15T12:33:19.211Z,3.85
2023-02-15T12:35:50.347Z,3.88
2023-02-15T12:38:26.556Z,3.83
2023-02-15T12:41:01.602Z,3.84
2023-02-15T12:43:34.344Z,3.84
2023-02-15T12:46:25.295Z,3.83
2023-02-15T12:49:09.921Z,3.69
2023-02-15T12:51:48.697Z,3.70
2023-02-15T12:54:35.463Z,3.67
2023-02-15T12:57:26.876Z,3.65
2023-02-15T12:59:57.517Z,3.73
2023-02-15T13:02:30.438Z,3.72
2023-02-15T13:04:59.670Z,3.72
2023-02-15T13:07:33.295Z,3.71
2023-02-15T13:10:01.511Z,3.65
2023-02-15T13:12:33.058Z,3.66
2023-02-15T13:15:03.414Z,3.65
2023-02-15T13:17:35.851Z,3.60
2023-02-15T13:20:10.767Z,3.53
2023-02-15T13:22:44.019Z,3.52
2023-02-15T13:25:17.465Z,3.53
2023-02-15T13:27:47.083Z,3.59
2023-02-15T13:30:27.545Z,3.53
2023-02-15T13:33:01.564Z,3.54
2023-02-15T13:35:38.337Z,3.55
2023-02-15T13:38:22.193Z,3.54
2023-02-15T13:40:55.834Z,3.57
2023-02-15T13:43:43.286Z,3.56
2023-02-15T13:46:21.772Z,3.49
2023-02-15T13:49:05.095Z,3.46
2023-02-15T13:51:42.794Z,3.40
2023-02-15T13:54:49.520Z,3.34
2023-02-15T13:57:43.619Z,3.30
2023-02-15T14:00:19.230Z,3.29
2023-02-15T14:03:19.666Z,3.25
2023-02-15T14:06:09.105Z,3.28
2023-02-15T14:08:48.870Z,3.29
2023-02-15T14:11:23.578Z,3.26
2023-02-15T14:14:17.817Z,3.22
2023-02-15T14:17:06.809Z,3.11
2023-02-15T14:19:39.540Z,3.21
2023-02-15T14:22:17.946Z,3.21
2023-02-15T14:24:52.206Z,3.21
2023-02-15T14:27:29.311Z,3.09
2023-02-15T14:29:59.937Z,3.10
2023-02-15T14:32:33.743Z,3.10
2023-02-15T14:35:02.880Z,3.09
2023-02-15T14:37:43.731Z,3.08
2023-02-15T14:40:37.002Z,3.05
2023-02-15T14:43:13.817Z,3.09
2023-02-15T14:45:57.816Z,3.08
2023-02-15T14:48:33.206Z,3.00
2023-02-15T14:51:02.488Z,3.02
2023-02-15T14:53:40.823Z,3.03
2023-02-15T14:56:27.164Z,2.96
2023-02-15T14:59:01.639Z,2.95
2023-02-15T15:01:31.855Z,2.97
2023-02-15T15:04:04.879Z,2.93
2023-02-15T15:06:34.938Z,2.88
2023-02-15T15:09:14.638Z,2.92
2023-02-15T15:11:45.862Z,2.87
2023-02-15T15:14:43.725Z,2.78
2023-02-15T15:17:38.772Z,2.75
2023-02-15T15:20:15.414Z,2.80
2023-02-15T15:22:44.800Z,2.71
2023-02-15T15:25:46.918Z,2.70
2023-02-15T15:28:47.343Z,2.67
2023-02-15T15:31:22.304Z,2.72
2023-02-15T15:34:19.685Z,2.70
2023-02-15T15:37:38.898Z,2.64
2023-02-15T15:40:35.539Z,2.65
2023-02-15T15:43:34.801Z,2.61
2023-02-15T15:46:15.547Z,2.66
2023-02-15T15:48:43.758Z,2.63
2023-02-15T15:51:19.901Z,2.58
2023-02-15T15:53:52.234Z,2.59
2023-02-15T15:56:23.329Z,2.59
2023-02-15T15:58:56.558Z,2.58
2023-02-15T16:01:30.562Z,2.52
2023-02-15T16:04:00.163Z,2.48
2023-02-15T16:06:34.115Z,2.47
2023-02-15T16:09:17.626Z,2.46
2023-02-15T16:11:46.109Z,2.37
2023-02-15T16:14:19.373Z,2.41
2023-02-15T16:16:54.217Z,2.39
2023-02-15T16:19:25.661Z,2.34
2023-02-15T16:21:54.019Z,2.36
2023-02-15T16:24:29.249Z,2.35
2023-02-15T16:27:21.742Z,2.33
2023-02-15T16:29:51.048Z,2.36
2023-02-15T16:32:21.627Z,2.27
2023-02-15T16:34:57.458Z,2.32
2023-02-15T16:37:28.392Z,2.30
2023-02-15T16:39:57.370Z,2.28
2023-02-15T16:42:26.066Z,2.27
2023-02-15T16:45:01.330Z,2.28
2023-02-15T16:47:32.415Z,2.19
2023-02-15T16:50:03.358Z,2.26
2023-02-15T16:52:31.984Z,2.21
2023-02-15T16:55:02.035Z,2.24
2023-02-15T16:57:33.330Z,2.20
2023-02-15T17:00:08.266Z,2.15
2023-02-15T17:02:55.113Z,2.19
2023-02-15T17:05:25.082Z,2.14
2023-02-15T17:08:14.155Z,2.07
2023-02-15T17:10:44.138Z,2.10
2023-02-15T17:13:13.605Z,2.06
2023-02-15T17:15:44.811Z,2.09
2023-02-15T17:18:18.867Z,1.99
2023-02-15T17:20:48.300Z,2.04
2023-02-15T17:23:27.740Z,2.05
2023-02-15T17:25:56.322Z,2.04
2023-02-15T17:28:26.828Z,2.03
2023-02-15T17:30:57.752Z,2.00
2023-02-15T17:33:30.084Z,2.01
2023-02-15T17:36:06.665Z,2.00
2023-02-15T17:38:34.999Z,1.99
2023-02-15T17:41:03.211Z,1.94
2023-02-15T17:43:31.208Z,1.96
2023-02-15T17:46:00.804Z,1.97
2023-02-15T17:48:33.592Z,1.96
2023-02-15T17:51:03.497Z,1.91
2023-02-15T17:53:32.112Z,1.87
2023-02-15T17:55:59.044Z,1.90
2023-02-15T17:58:27.125Z,1.89
2023-02-15T18:01:15.948Z,1.88
2023-02-15T18:04:06.258Z,1.87
2023-02-15T18:06:52.457Z,1.83
2023-02-15T18:09:39.944Z,1.85
2023-02-15T18:12:20.541Z,1.72
2023-02-15T18:14:48.461Z,1.72
2023-02-15T18:17:17.585Z,1.72
2023-02-15T18:19:48.516Z,1.71
2023-02-15T18:22:19.070Z,1.69
2023-02-15T18:24:47.861Z,1.67
2023-02-15T18:27:17.196Z,1.70
2023-02-15T18:29:45.113Z,1.59
2023-02-15T18:32:18.349Z,1.62
2023-02-15T18:34:49.541Z,1.64
2023-02-15T18:37:20.608Z,1.65
2023-02-15T18:39:50.298Z,1.61
2023-02-15T18:42:22.680Z,1.58
2023-02-15T18:44:51.320Z,1.61
2023-02-15T18:47:19.228Z,1.57
2023-02-15T18:49:48.521Z,1.63
2023-02-15T18:52:18.122Z,1.66
2023-02-15T18:54:46.961Z,1.69
2023-02-15T18:57:16.850Z,1.66
2023-02-15T18:59:44.818Z,1.64
2023-02-15T19:02:18.007Z,1.52
2023-02-15T19:04:46.951Z,1.51
2023-02-15T19:07:20.550Z,1.54
2023-02-15T19:09:52.038Z,1.54
2023-02-15T19:12:20.564Z,1.58
2023-02-15T19:14:49.000Z,1.52
2023-02-15T19:17:19.223Z,1.52
2023-02-15T19:19:47.792Z,1.60
2023-02-15T19:22:19.244Z,1.59
2023-02-15T19:24:49.007Z,1.52
2023-02-15T19:27:23.762Z,1.58
2023-02-15T19:29:52.255Z,1.51
2023-02-15T19:32:20.030Z,1.54
2023-02-15T19:34:47.840Z,1.53
2023-02-15T19:37:24.655Z,1.50
2023-02-15T19:39:53.079Z,1.50
2023-02-15T19:42:24.096Z,1.47
2023-02-15T19:44:52.123Z,1.50
2023-02-15T19:47:20.106Z,1.50
2023-02-15T19:49:48.330Z,1.44
2023-02-15T19:52:19.824Z,1.43
2023-02-15T19:54:49.345Z,1.46
2023-02-15T19:57:17.418Z,1.40
2023-02-15T19:59:45.298Z,1.41
2023-02-15T20:02:15.463Z,1.42
2023-02-15T20:04:43.553Z,1.42
2023-02-15T20:07:23.316Z,1.41
2023-02-15T20:09:51.234Z,1.41
2023-02-15T20:12:25.058Z,1.39
2023-02-15T20:14:53.636Z,1.33
2023-02-15T20:17:21.508Z,1.41
2023-02-15T20:19:49.479Z,1.40
2023-02-15T20:22:24.441Z,1.44
2023-02-15T20:24:55.630Z,1.41
2023-02-15T20:27:24.114Z,1.35
2023-02-15T20:29:52.241Z,1.38
2023-02-15T20:32:20.322Z,1.37
2023-02-15T20:34:48.331Z,1.34
2023-02-15T20:37:26.412Z,1.34
2023-02-15T20:39:54.479Z,1.30
2023-02-15T20:42:22.540Z,1.24
2023-02-15T20:44:50.445Z,1.27
2023-02-15T20:47:18.482Z,1.32
2023-02-15T20:49:46.334Z,1.31
2023-02-15T20:52:20.398Z,1.34
2023-02-15T20:54:49.828Z,1.36
2023-02-15T20:57:17.820Z,1.32
2023-02-15T20:59:46.040Z,1.31
2023-02-15T21:02:18.925Z,1.32
2023-02-15T21:04:47.174Z,1.36
2023-02-15T21:07:16.956Z,1.28
2023-02-15T21:09:45.222Z,1.31
2023-02-15T21:12:16.154Z,1.32
2023-02-15T21:14:45.150Z,1.36
2023-02-15T21:17:13.537Z,1.30
2023-02-15T21:19:41.737Z,1.28
2023-02-15T21:22:13.433Z,1.27
2023-02-15T21:24:47.865Z,1.31
2023-02-15T21:27:18.857Z,1.30
2023-02-15T21:29:46.688Z,1.37
2023-02-15T21:32:14.716Z,1.30
2023-02-15T21:34:42.764Z,1.33
2023-02-15T21:37:27.486Z,1.31
2023-02-15T21:39:55.378Z,1.27
2023-02-15T21:42:42.310Z,1.27
2023-02-15T21:45:33.383Z,1.24
2023-02-15T21:48:01.546Z,1.25
2023-02-15T21:50:47.507Z,1.25
2023-02-15T21:53:23.084Z,1.21
2023-02-15T21:55:52.472Z,1.19
2023-02-15T21:58:24.488Z,1.21
2023-02-15T22:00:54.875Z,1.21
2023-02-15T22:03:23.948Z,1.27
2023-02-15T22:05:52.135Z,1.25
2023-02-15T22:08:20.464Z,1.26
2023-02-15T22:10:49.094Z,1.23
2023-02-15T22:13:20.554Z,1.27
2023-02-15T22:15:49.902Z,1.23
2023-02-15T22:18:24.111Z,1.22
2023-02-15T22:20:52.911Z,1.26
2023-02-15T22:23:21.810Z,1.22
2023-02-15T22:25:55.754Z,1.19
2023-02-15T22:28:29.120Z,1.18
2023-02-15T22:30:58.518Z,1.19
2023-02-15T22:33:29.776Z,1.19
2023-02-15T22:35:58.674Z,1.17
2023-02-15T22:38:27.166Z,1.16
2023-02-15T22:40:57.839Z,1.12
2023-02-15T22:43:36.855Z,1.07
2023-02-15T22:46:08.474Z,1.10
2023-02-15T22:48:36.786Z,1.13
2023-02-15T22:51:05.229Z,1.13
2023-02-15T22:53:33.443Z,1.15
2023-02-15T22:56:07.469Z,1.08
2023-02-15T22:58:35.930Z,1.09
2023-02-15T23:01:04.043Z,1.12
2023-02-15T23:03:34.313Z,1.04
2023-02-15T23:06:02.226Z,1.18
2023-02-15T23:08:30.265Z,1.18
2023-02-15T23:10:58.758Z,1.16
2023-02-15T23:13:32.253Z,1.19
2023-02-15T23:16:02.388Z,1.21
2023-02-15T23:18:35.330Z,1.15
2023-02-15T23:21:07.581Z,1.14
2023-02-15T23:23:38.090Z,1.19
2023-02-15T23:26:16.354Z,1.15
2023-02-15T23:28:44.446Z,1.15
2023-02-15T23:31:19.154Z,1.19
2023-02-15T23:33:49.699Z,1.16
2023-02-15T23:36:27.554Z,1.16
2023-02-15T23:38:55.844Z,1.21
2023-02-15T23:41:26.695Z,1.20
2023-02-15T23:43:57.773Z,1.13
2023-02-15T23:46:34.094Z,1.19
2023-02-15T23:49:15.157Z,1.21
2023-02-15T23:51:44.815Z,1.21
2023-02-15T23:54:15.480Z,1.18
2023-02-15T23:56:45.406Z,1.23
2023-02-15T23:59:17.752Z,1.22
